Farmington, New Mexico
Current Conditions -  °F | °C
As of 12:53 PM on Sunday 21 Dec 2014 (Local Time) from KFMN Reporting Station
Clear Clear  
Wind Chill: 34°   Ceiling: Unl
Heat Index: 40°   Visibility: 10mi
Dew Point: 30°   Wind: 9mph
Humidity: 68%   Direction: 270°W
Pressure: 29.97"   Gusts: NA
Location:  36.73°N, 108.2°W
Report Text: KFMN 211953Z 27008KT 10SM CLR 04/M01 A2997 RMK AO2 PRESFR SLP157 T00441011
Loading
Personal Weather Stations






























Interactive Weather Map New forecast layout! Learn more

10-Day Weather Forecast

Advertisements
Track Severe Weather on mobile